createdAt,value
2023-03-12T00:01:36.437Z,99626.00
2023-03-12T00:04:39.312Z,99635.75
2023-03-12T00:07:41.413Z,99632.03
2023-03-12T00:10:43.427Z,99638.06
2023-03-12T00:13:48.916Z,99671.94
2023-03-12T00:16:51.215Z,99663.59
2023-03-12T00:19:53.864Z,99668.91
2023-03-12T00:22:56.238Z,99677.09
2023-03-12T00:26:17.829Z,99665.66
2023-03-12T00:29:20.430Z,99690.28
2023-03-12T00:32:22.578Z,99691.81
2023-03-12T00:35:30.344Z,99696.56
2023-03-12T00:38:32.865Z,99698.19
2023-03-12T00:41:35.044Z,99709.88
2023-03-12T00:44:37.268Z,99729.94
2023-03-12T00:47:41.820Z,99727.19
2023-03-12T00:50:44.216Z,99738.66
2023-03-12T00:53:48.438Z,99747.06
2023-03-12T00:56:50.784Z,99757.22
2023-03-12T00:59:52.914Z,99750.59
2023-03-12T01:02:56.927Z,99777.19
2023-03-12T01:06:01.936Z,99783.03
2023-03-12T01:09:05.972Z,99773.16
2023-03-12T01:12:08.422Z,99803.38
2023-03-12T01:15:14.084Z,99800.63
2023-03-12T01:18:16.612Z,99811.91
2023-03-12T01:21:18.749Z,99833.69
2023-03-12T01:24:21.006Z,99832.38
2023-03-12T01:27:23.290Z,99851.13
2023-03-12T01:30:25.734Z,99851.72
2023-03-12T01:33:27.922Z,99856.88
2023-03-12T01:36:31.056Z,99866.72
2023-03-12T01:39:33.149Z,99867.94
2023-03-12T01:42:35.195Z,99871.47
2023-03-12T01:46:24.524Z,99868.78
2023-03-12T01:49:31.791Z,99870.19
2023-03-12T01:52:37.853Z,99877.59
2023-03-12T01:55:41.845Z,99885.19
2023-03-12T01:58:50.826Z,99881.72
2023-03-12T02:01:53.193Z,99893.03
2023-03-12T02:05:17.775Z,99890.25
2023-03-12T02:08:19.958Z,99899.00
2023-03-12T02:11:22.039Z,99893.72
2023-03-12T02:14:24.354Z,99917.16
2023-03-12T02:17:26.835Z,99899.09
2023-03-12T02:21:10.098Z,99918.00
2023-03-12T02:24:24.827Z,99937.03
2023-03-12T02:27:27.011Z,99945.13
2023-03-12T02:30:30.772Z,99938.06
2023-03-12T02:33:32.930Z,99961.91
2023-03-12T02:36:35.395Z,99961.31
2023-03-12T02:39:41.524Z,99970.34
2023-03-12T02:42:44.957Z,99978.25
2023-03-12T02:45:47.158Z,99989.75
2023-03-12T02:48:49.852Z,99988.66
2023-03-12T02:51:52.522Z,100002.13
2023-03-12T02:54:54.642Z,99998.72
2023-03-12T02:57:56.876Z,100005.06
2023-03-12T03:00:59.102Z,100002.66
2023-03-12T03:04:02.895Z,100017.53
2023-03-12T03:07:05.244Z,100030.66
2023-03-12T03:10:08.123Z,100039.50
2023-03-12T03:13:10.260Z,100053.56
2023-03-12T03:16:14.027Z,100047.16
2023-03-12T03:19:16.492Z,100057.28
2023-03-12T03:22:19.800Z,100079.31
2023-03-12T03:25:23.385Z,100082.97
2023-03-12T03:28:27.672Z,100092.28
2023-03-12T03:31:30.722Z,100094.78
2023-03-12T03:34:33.725Z,100095.00
2023-03-12T03:37:35.964Z,100092.31
2023-03-12T03:40:38.172Z,100088.88
2023-03-12T03:43:40.358Z,100110.75
2023-03-12T03:46:42.533Z,100120.13
2023-03-12T03:49:46.530Z,100110.09
2023-03-12T03:52:49.931Z,100096.88
2023-03-12T03:55:52.018Z,100113.69
2023-03-12T03:58:54.443Z,100127.09
2023-03-12T04:01:57.385Z,100118.72
2023-03-12T04:05:01.126Z,100127.63
2023-03-12T04:08:03.717Z,100145.50
2023-03-12T04:11:19.071Z,100156.53
2023-03-12T04:14:21.253Z,100136.97
2023-03-12T04:17:23.564Z,100146.06
2023-03-12T04:20:25.671Z,100151.72
2023-03-12T04:23:27.975Z,100144.00
2023-03-12T04:26:30.945Z,100162.22
2023-03-12T04:29:33.475Z,100167.13
2023-03-12T04:32:35.798Z,100167.50
2023-03-12T04:35:38.230Z,100191.69
2023-03-12T04:38:40.462Z,100170.75
2023-03-12T04:41:43.147Z,100185.47
2023-03-12T04:44:52.613Z,100175.03
2023-03-12T04:47:55.098Z,100192.09
2023-03-12T04:50:57.385Z,100188.88
2023-03-12T04:54:00.905Z,100198.72
2023-03-12T04:57:03.209Z,100213.78
2023-03-12T05:00:11.189Z,100217.81
2023-03-12T05:03:13.535Z,100223.81
2023-03-12T05:06:15.593Z,100239.25
2023-03-12T05:09:18.135Z,100247.72
2023-03-12T05:12:20.320Z,100262.66
2023-03-12T05:15:22.698Z,100270.91
2023-03-12T05:18:26.562Z,100275.13
2023-03-12T05:21:30.564Z,100288.00
2023-03-12T05:24:32.906Z,100301.09
2023-03-12T05:27:36.776Z,100305.56
2023-03-12T05:30:40.415Z,100310.91
2023-03-12T05:33:43.668Z,100312.16
2023-03-12T05:36:46.103Z,100334.25
2023-03-12T05:39:54.252Z,100348.53
2023-03-12T05:42:56.801Z,100346.22
2023-03-12T05:46:04.106Z,100362.28
2023-03-12T05:49:07.721Z,100350.13
2023-03-12T05:52:10.528Z,100372.97
2023-03-12T05:55:12.697Z,100361.91
2023-03-12T05:58:14.762Z,100370.00
2023-03-12T06:01:24.120Z,100394.50
2023-03-12T06:04:27.299Z,100395.13
2023-03-12T06:07:29.497Z,100398.88
2023-03-12T06:10:31.879Z,100409.19
2023-03-12T06:13:34.292Z,100418.94
2023-03-12T06:16:37.264Z,100429.03
2023-03-12T06:19:39.619Z,100439.75
2023-03-12T06:22:42.736Z,100453.22
2023-03-12T06:25:45.456Z,100468.97
2023-03-12T06:28:49.139Z,100459.88
2023-03-12T06:31:52.458Z,100470.50
2023-03-12T06:34:54.546Z,100477.41
2023-03-12T06:37:56.654Z,100472.91
2023-03-12T06:41:04.118Z,100483.25
2023-03-12T06:44:06.647Z,100493.53
2023-03-12T06:47:09.927Z,100501.72
2023-03-12T06:50:12.120Z,100509.34
2023-03-12T06:53:14.181Z,100520.00
2023-03-12T06:56:16.199Z,100510.44
2023-03-12T06:59:18.620Z,100529.31
2023-03-12T07:02:20.815Z,100521.72
2023-03-12T07:05:24.116Z,100535.28
2023-03-12T07:08:31.042Z,100536.56
2023-03-12T07:11:33.086Z,100564.88
2023-03-12T07:14:35.085Z,100559.59
2023-03-12T07:17:37.199Z,100557.97
2023-03-12T07:20:41.542Z,100577.91
2023-03-12T07:23:43.569Z,100575.22
2023-03-12T07:26:46.190Z,100580.66
2023-03-12T07:29:48.589Z,100597.41
2023-03-12T07:32:50.785Z,100591.00
2023-03-12T07:35:53.062Z,100592.47
2023-03-12T07:38:55.667Z,100592.38
2023-03-12T07:41:57.784Z,100605.03
2023-03-12T07:45:00.309Z,100612.84
2023-03-12T07:48:02.357Z,100618.09
2023-03-12T07:51:05.190Z,100617.81
2023-03-12T07:54:07.232Z,100622.94
2023-03-12T07:57:09.401Z,100623.38
2023-03-12T08:00:12.400Z,100627.56
2023-03-12T08:03:14.847Z,100621.25
2023-03-12T08:06:17.063Z,100619.63
2023-03-12T08:09:19.128Z,100654.88
2023-03-12T08:12:21.120Z,100641.13
2023-03-12T08:15:25.517Z,100637.38
2023-03-12T08:18:27.919Z,100638.97
2023-03-12T08:21:30.109Z,100656.88
2023-03-12T08:24:32.152Z,100656.31
2023-03-12T08:27:34.233Z,100652.81
2023-03-12T08:30:36.456Z,100660.19
2023-03-12T08:33:41.286Z,100670.94
2023-03-12T08:36:43.259Z,100671.19
2023-03-12T08:39:45.349Z,100694.19
2023-03-12T08:42:47.449Z,100661.69
2023-03-12T08:46:00.809Z,100673.56
2023-03-12T08:49:02.901Z,100671.56
2023-03-12T08:52:05.445Z,100674.31
2023-03-12T08:55:08.113Z,100693.31
2023-03-12T08:58:10.152Z,100693.94
2023-03-12T09:01:13.802Z,100694.91
2023-03-12T09:04:17.133Z,100709.16
2023-03-12T09:07:19.229Z,100728.19
2023-03-12T09:10:21.341Z,100721.69
2023-03-12T09:13:23.426Z,100725.22
2023-03-12T09:16:25.505Z,100720.19
2023-03-12T09:19:27.532Z,100716.81
2023-03-12T09:22:30.651Z,100736.69
2023-03-12T09:25:33.377Z,100748.13
2023-03-12T09:28:35.458Z,100741.75
2023-03-12T09:31:37.568Z,100735.72
2023-03-12T09:34:39.663Z,100748.47
2023-03-12T09:37:41.983Z,100741.81
2023-03-12T09:40:47.745Z,100736.94
2023-03-12T09:43:53.066Z,100724.78
2023-03-12T09:47:01.310Z,100759.31
2023-03-12T09:50:17.157Z,100756.97
2023-03-12T09:53:28.491Z,100750.47
2023-03-12T09:56:30.558Z,100755.66
2023-03-12T09:59:37.147Z,100741.03
2023-03-12T10:02:51.765Z,100756.13
2023-03-12T10:06:29.850Z,100767.34
2023-03-12T10:09:37.767Z,100752.03
2023-03-12T10:13:04.554Z,100756.66
2023-03-12T10:16:49.793Z,100745.81
2023-03-12T10:20:16.580Z,100751.16
2023-03-12T10:23:37.198Z,100756.31
2023-03-12T10:26:44.206Z,100751.75
2023-03-12T10:29:51.000Z,100752.03
2023-03-12T10:32:59.356Z,100761.94
2023-03-12T10:36:01.672Z,100732.88
2023-03-12T10:39:04.646Z,100754.72
2023-03-12T10:42:16.615Z,100744.53
2023-03-12T10:46:04.539Z,100749.78
2023-03-12T10:49:22.009Z,100765.19
2023-03-12T10:52:24.136Z,100736.13
2023-03-12T10:55:29.800Z,100755.53
2023-03-12T10:58:43.968Z,100737.22
2023-03-12T11:01:50.234Z,100760.19
2023-03-12T11:04:55.509Z,100745.91
2023-03-12T11:08:00.581Z,100737.66
2023-03-12T11:11:05.479Z,100746.59
2023-03-12T11:14:16.412Z,100754.44
2023-03-12T11:17:27.829Z,100739.03
2023-03-12T11:20:30.980Z,100738.41
2023-03-12T11:23:33.754Z,100733.22
2023-03-12T11:27:14.403Z,100731.97
2023-03-12T11:30:40.831Z,100738.09
2023-03-12T11:33:42.991Z,100741.38
2023-03-12T11:36:47.980Z,100736.75
2023-03-12T11:40:10.166Z,100749.50
2023-03-12T11:44:09.166Z,100751.63
2023-03-12T11:47:14.200Z,100744.75
2023-03-12T11:50:45.888Z,100753.78
2023-03-12T11:54:06.620Z,100756.16
2023-03-12T11:57:15.549Z,100748.41
2023-03-12T12:00:35.101Z,100746.50
2023-03-12T12:03:49.114Z,100757.84
2023-03-12T12:07:05.294Z,100767.25
2023-03-12T12:10:30.599Z,100758.31
2023-03-12T12:13:46.830Z,100771.78
2023-03-12T12:17:01.127Z,100767.63
2023-03-12T12:20:29.052Z,100764.66
2023-03-12T12:24:17.699Z,100762.59
2023-03-12T12:27:27.524Z,100765.06
2023-03-12T13:13:20.972Z,100784.22
2023-03-12T13:16:40.206Z,100802.41
2023-03-12T13:19:44.953Z,100800.06
2023-03-12T13:23:05.164Z,100795.25
2023-03-12T13:26:11.995Z,100796.00
2023-03-12T13:29:19.963Z,100805.50
2023-03-12T13:32:34.637Z,100794.34
2023-03-12T13:35:39.538Z,100785.56
2023-03-12T13:38:53.783Z,100785.88
2023-03-12T13:41:57.042Z,100793.75
2023-03-12T13:45:22.233Z,100795.88
2023-03-12T13:48:25.571Z,100781.22
2023-03-12T13:51:28.310Z,100802.38
2023-03-12T13:54:34.555Z,100801.78
2023-03-12T13:57:50.518Z,100802.81
2023-03-12T14:01:01.308Z,100794.81
2023-03-12T14:04:12.642Z,100794.22
2023-03-12T14:07:30.643Z,100803.63
2023-03-12T14:10:41.896Z,100793.97
2023-03-12T14:13:51.355Z,100788.56
2023-03-12T14:17:01.575Z,100805.91
2023-03-12T14:20:26.828Z,100801.28
2023-03-12T14:23:35.122Z,100804.00
2023-03-12T14:26:37.408Z,100801.91
2023-03-12T14:29:43.966Z,100804.16
2023-03-12T14:32:48.320Z,100793.22
2023-03-12T14:35:56.646Z,100778.78
2023-03-12T14:39:10.505Z,100781.47
2023-03-12T14:42:31.989Z,100785.56
2023-03-12T14:45:40.618Z,100802.22
2023-03-12T14:48:43.017Z,100804.94
2023-03-12T14:51:45.172Z,100823.25
2023-03-12T14:54:56.429Z,100798.06
2023-03-12T14:58:17.354Z,100820.03
2023-03-12T15:01:30.128Z,100830.00
2023-03-12T15:04:34.900Z,100836.00
2023-03-12T15:07:39.747Z,100839.31
2023-03-12T15:10:51.960Z,100845.88
2023-03-12T15:13:56.000Z,100845.19
2023-03-12T15:17:00.402Z,100851.00
2023-03-12T15:20:10.701Z,100850.81
2023-03-12T15:23:14.285Z,100850.22
2023-03-12T15:26:29.082Z,100870.13
2023-03-12T15:29:31.224Z,100865.53
2023-03-12T15:32:33.571Z,100870.91
2023-03-12T15:35:39.601Z,100880.47
2023-03-12T15:39:15.619Z,100887.31
2023-03-12T15:42:21.790Z,100870.31
2023-03-12T15:45:46.020Z,100890.16
2023-03-12T15:48:53.903Z,100890.66
2023-03-12T15:52:02.257Z,100892.94
2023-03-12T15:55:07.310Z,100830.56
2023-03-12T15:58:41.004Z,100908.34
2023-03-12T16:01:53.033Z,100908.13
2023-03-12T16:04:55.296Z,100907.97
2023-03-12T16:07:59.347Z,100919.22
2023-03-12T16:11:02.080Z,100939.25
2023-03-12T16:14:10.890Z,100941.03
2023-03-12T16:17:17.944Z,100955.84
2023-03-12T16:20:20.196Z,100964.19
2023-03-12T16:23:23.206Z,100971.69
2023-03-12T16:26:25.215Z,100976.63
2023-03-12T16:29:35.940Z,100975.03
2023-03-12T16:32:38.467Z,100978.34
2023-03-12T16:35:40.746Z,100984.69
2023-03-12T16:38:44.204Z,100990.28
2023-03-12T16:41:47.179Z,100991.06
2023-03-12T16:44:49.278Z,101005.63
2023-03-12T16:47:58.032Z,101003.81
2023-03-12T16:51:03.569Z,101006.72
2023-03-12T16:54:11.417Z,101017.31
2023-03-12T16:57:41.171Z,101016.97
2023-03-12T17:00:43.984Z,101030.47
2023-03-12T17:03:49.675Z,101034.03
2023-03-12T17:06:51.910Z,101041.91
2023-03-12T17:09:54.147Z,101040.22
2023-03-12T17:12:56.835Z,101050.69
2023-03-12T17:15:58.948Z,101053.75
2023-03-12T17:19:01.118Z,101059.44
2023-03-12T17:22:04.463Z,101064.22
2023-03-12T17:25:07.828Z,101059.38
2023-03-12T17:28:11.873Z,101067.25
2023-03-12T17:31:16.929Z,101059.50
2023-03-12T17:34:19.441Z,101074.66
2023-03-12T17:37:23.725Z,101078.66
2023-03-12T17:40:27.112Z,101072.09
2023-03-12T17:43:29.649Z,101084.81
2023-03-12T17:46:31.978Z,101093.81
2023-03-12T17:49:34.200Z,101087.00
2023-03-12T17:52:36.711Z,101090.19
2023-03-12T17:55:38.697Z,101101.81
2023-03-12T17:58:40.724Z,101103.78
2023-03-12T18:01:42.966Z,101103.09
2023-03-12T18:04:45.038Z,101103.44
2023-03-12T18:07:48.519Z,101111.91
2023-03-12T18:10:50.580Z,101106.56
2023-03-12T18:13:53.439Z,101118.78
2023-03-12T18:16:55.579Z,101122.19
2023-03-12T18:19:57.662Z,101130.84
2023-03-12T18:23:00.173Z,101138.22
2023-03-12T18:26:04.733Z,101135.91
2023-03-12T18:29:06.692Z,101144.97
2023-03-12T18:32:09.463Z,101149.19
2023-03-12T18:35:13.969Z,101154.25
2023-03-12T18:38:16.187Z,101160.16
2023-03-12T18:41:18.192Z,101169.59
2023-03-12T18:44:20.290Z,101169.41
2023-03-12T18:47:23.297Z,101167.34
2023-03-12T18:50:25.644Z,101177.75
2023-03-12T18:53:29.338Z,101178.53
2023-03-12T18:56:31.434Z,101191.00
2023-03-12T18:59:33.502Z,101193.88
2023-03-12T19:02:35.609Z,101199.84
2023-03-12T19:05:37.993Z,101208.16
2023-03-12T19:08:40.535Z,101209.66
2023-03-12T19:11:42.613Z,101220.31
2023-03-12T19:14:44.672Z,101229.78
2023-03-12T19:17:46.806Z,101226.41
2023-03-12T19:20:48.980Z,101233.81
2023-03-12T19:23:52.210Z,101220.81
2023-03-12T19:26:54.351Z,101234.28
2023-03-12T19:29:59.208Z,101242.00
2023-03-12T19:33:01.332Z,101238.28
2023-03-12T19:36:06.258Z,101248.19
2023-03-12T19:39:15.198Z,101250.38
2023-03-12T19:42:22.364Z,101256.78
2023-03-12T19:45:24.620Z,101250.69
2023-03-12T19:48:27.012Z,101263.94
2023-03-12T19:51:29.471Z,101269.38
2023-03-12T19:54:31.631Z,101266.88
2023-03-12T19:57:34.403Z,101277.31
2023-03-12T20:00:37.995Z,101274.63
2023-03-12T20:03:45.040Z,101289.09
2023-03-12T20:06:47.727Z,101277.44
2023-03-12T20:09:50.222Z,101295.31
2023-03-12T20:12:55.642Z,101283.13
2023-03-12T20:15:57.863Z,101302.78
2023-03-12T20:19:00.297Z,101292.63
2023-03-12T20:22:02.489Z,101313.25
2023-03-12T20:25:06.399Z,101316.72
2023-03-12T20:28:10.942Z,101320.31
2023-03-12T20:31:16.549Z,101310.19
2023-03-12T20:34:18.732Z,101328.06
2023-03-12T20:37:22.504Z,101321.81
2023-03-12T20:40:24.625Z,101337.69
2023-03-12T20:43:27.053Z,101330.44
2023-03-12T20:46:29.237Z,101329.06
2023-03-12T20:49:31.407Z,101332.81
2023-03-12T20:52:33.958Z,101333.91
2023-03-12T20:55:38.996Z,101346.16
2023-03-12T20:58:46.125Z,101359.72
2023-03-12T21:01:48.126Z,101341.69
2023-03-12T21:04:53.015Z,101350.03
2023-03-12T21:07:58.371Z,101367.81
2023-03-12T21:11:00.627Z,101369.97
2023-03-12T21:14:02.634Z,101367.38
2023-03-12T21:17:04.935Z,101367.81
2023-03-12T21:20:17.183Z,101378.72
2023-03-12T21:23:19.982Z,101377.41
2023-03-12T21:26:23.045Z,101375.84
2023-03-12T21:29:25.262Z,101380.94
2023-03-12T21:32:27.798Z,101385.44
2023-03-12T21:35:30.062Z,101374.44
2023-03-12T21:38:32.292Z,101382.69
2023-03-12T21:41:34.291Z,101391.31
2023-03-12T21:44:37.252Z,101396.69
2023-03-12T21:47:41.720Z,101402.22
2023-03-12T21:50:43.816Z,101401.81
2023-03-12T21:53:45.961Z,101393.78
2023-03-12T21:56:47.945Z,101414.84
2023-03-12T21:59:50.012Z,101401.53
2023-03-12T22:02:53.023Z,101423.66
2023-03-12T22:05:55.343Z,101425.25
2023-03-12T22:08:57.645Z,101429.63
2023-03-12T22:12:01.675Z,101429.88
2023-03-12T22:15:04.582Z,101422.38
2023-03-12T22:18:06.715Z,101429.31
2023-03-12T22:21:13.636Z,101436.41
2023-03-12T22:24:15.748Z,101420.19
2023-03-12T22:27:17.870Z,101452.59
2023-03-12T22:30:20.148Z,101454.22
2023-03-12T22:33:22.379Z,101461.38
2023-03-12T22:36:24.624Z,101458.75
2023-03-12T22:39:26.732Z,101456.06
2023-03-12T22:42:28.801Z,101464.09
2023-03-12T22:45:31.060Z,101443.44
2023-03-12T22:48:33.333Z,101468.31
2023-03-12T22:51:35.387Z,101467.38
2023-03-12T22:54:37.466Z,101486.25
2023-03-12T22:57:39.507Z,101493.75
2023-03-12T23:00:41.636Z,101500.13
2023-03-12T23:03:45.385Z,101499.31
2023-03-12T23:06:47.371Z,101493.91
2023-03-12T23:09:49.879Z,101513.47
2023-03-12T23:12:51.803Z,101503.97
2023-03-12T23:15:53.923Z,101509.41
2023-03-12T23:18:56.708Z,101516.19
2023-03-12T23:21:58.853Z,101515.81
2023-03-12T23:25:01.006Z,101504.06
2023-03-12T23:28:03.623Z,101514.69
2023-03-12T23:31:07.700Z,101521.19
2023-03-12T23:34:10.089Z,101531.41
2023-03-12T23:37:12.301Z,101517.22
2023-03-12T23:40:16.965Z,101528.09
2023-03-12T23:43:19.354Z,101534.00
2023-03-12T23:46:21.624Z,101553.41
2023-03-12T23:49:23.710Z,101548.47
2023-03-12T23:52:28.641Z,101560.66
2023-03-12T23:55:30.928Z,101542.34
2023-03-12T23:58:33.248Z,101535.13
